Angleton, Texas
Current Conditions -  °F | °C
As of 6:53 AM on Friday 24 Oct 2014 (Local Time) from KLBX Reporting Station
Clear Clear  
Wind Chill: 55°   Ceiling: Unl
Heat Index: 55°   Visibility: 8mi
Dew Point: 55°   Wind: 5mph
Humidity: 100%   Direction: 360°N
Pressure: 30.12"   Gusts: NA
Location:  29.16°N, 95.43°W
Report Text: KLBX 241153Z AUTO 36004KT 8SM CLR 13/13 A3012 RMK AO2 SLP199 T01280128 10139 20122 53005
Loading
Personal Weather Stations






























Interactive Weather Map
Tropical Storm Tracking
New forecast layout! Learn more

10-Day Weather Forecast

Advertisements
Track Severe Weather on mobile